LYNI/INI METAR and TAF weather

Enter ICAO airport designator
Station Type Date Time Source
LYNI METAR 2020/09/20 08:00 UTC NOAA

LYNI 200800Z VRB02KT CAVOK 18/09 Q1019 NOSIG


Station Type Date Time Source
LYNI Decoded METAR 2020/09/20 08:00 UTC NOAA

Nis, Serbia and Montenegro (LYNI) 43-20N 021-54E 202M
Sep 20, 2020 - 04:00 AM EDT / 2020.09.20 0800 UTC
Wind: Variable at 2 MPH (2 KT):0
Visibility: greater than 7 mile(s):0
Temperature: 64 F (18 C)
Dew Point: 48 F (9 C)
Relative Humidity: 55%
Pressure (altimeter): 30.09 in. Hg (1019 hPa)
ob: LYNI 200800Z VRB02KT CAVOK 18/09 Q1019 NOSIG
cycle: 8

Station Type Date Time Source
LYNI TAF 2020/09/20 06:21 UTC NOAA

TAF LYNI 200500Z 2006/2106 34008KT 9999 SCT040 TX26/1913Z TN12/2104Z
TEMPO 2009/2017 04014KT

Example: see airport list